sensor_id;sensor_type;location;lat;lon;timestamp;P1;durP1;ratioP1;P2;durP2;ratioP2
56005;SDS011;41888;44.696;10.522;2023-04-07T00:02:09;14.68;;;7.22;;
56005;SDS011;41888;44.696;10.522;2023-04-07T00:04:35;15.63;;;7.60;;
56005;SDS011;41888;44.696;10.522;2023-04-07T00:07:01;15.80;;;7.88;;
56005;SDS011;41888;44.696;10.522;2023-04-07T00:09:27;13.88;;;7.43;;
56005;SDS011;41888;44.696;10.522;2023-04-07T00:11:53;21.23;;;7.10;;
56005;SDS011;41888;44.696;10.522;2023-04-07T00:14:20;15.43;;;6.65;;
56005;SDS011;41888;44.696;10.522;2023-04-07T00:16:46;14.10;;;7.22;;
56005;SDS011;41888;44.696;10.522;2023-04-07T00:19:12;14.05;;;7.00;;
56005;SDS011;41888;44.696;10.522;2023-04-07T00:21:38;15.70;;;7.32;;
56005;SDS011;41888;44.696;10.522;2023-04-07T00:24:05;13.25;;;7.53;;
56005;SDS011;41888;44.696;10.522;2023-04-07T00:26:31;10.27;;;6.18;;
56005;SDS011;41888;44.696;10.522;2023-04-07T00:28:58;12.40;;;6.78;;
56005;SDS011;41888;44.696;10.522;2023-04-07T00:31:24;12.63;;;6.90;;
56005;SDS011;41888;44.696;10.522;2023-04-07T00:33:51;11.15;;;7.13;;
56005;SDS011;41888;44.696;10.522;2023-04-07T00:36:17;13.82;;;6.43;;
56005;SDS011;41888;44.696;10.522;2023-04-07T00:38:43;17.38;;;7.32;;
56005;SDS011;41888;44.696;10.522;2023-04-07T00:41:09;14.05;;;6.65;;
56005;SDS011;41888;44.696;10.522;2023-04-07T00:43:36;12.73;;;7.00;;
56005;SDS011;41888;44.696;10.522;2023-04-07T00:46:02;18.88;;;7.55;;
56005;SDS011;41888;44.696;10.522;2023-04-07T00:48:28;13.60;;;6.93;;
56005;SDS011;41888;44.696;10.522;2023-04-07T00:50:55;12.30;;;6.80;;
56005;SDS011;41888;44.696;10.522;2023-04-07T00:53:21;13.75;;;5.43;;
56005;SDS011;41888;44.696;10.522;2023-04-07T00:55:48;12.15;;;7.03;;
56005;SDS011;41888;44.696;10.522;2023-04-07T00:58:14;10.63;;;6.55;;
56005;SDS011;41888;44.696;10.522;2023-04-07T01:00:42;13.43;;;6.13;;
56005;SDS011;41888;44.696;10.522;2023-04-07T01:03:17;13.07;;;6.53;;
56005;SDS011;41888;44.696;10.522;2023-04-07T01:08:22;11.60;;;6.57;;
56005;SDS011;41888;44.696;10.522;2023-04-07T01:10:59;10.48;;;5.68;;
56005;SDS011;41888;44.696;10.522;2023-04-07T01:13:45;12.38;;;5.95;;
56005;SDS011;41888;44.696;10.522;2023-04-07T01:16:30;12.43;;;6.47;;
56005;SDS011;41888;44.696;10.522;2023-04-07T01:19:35;12.30;;;6.78;;
56005;SDS011;41888;44.696;10.522;2023-04-07T01:22:20;13.35;;;5.90;;
56005;SDS011;41888;44.696;10.522;2023-04-07T01:30:23;10.50;;;5.85;;
56005;SDS011;41888;44.696;10.522;2023-04-07T01:32:55;13.98;;;7.05;;
56005;SDS011;41888;44.696;10.522;2023-04-07T01:35:24;10.75;;;6.07;;
56005;SDS011;41888;44.696;10.522;2023-04-07T01:37:53;11.25;;;6.68;;
56005;SDS011;41888;44.696;10.522;2023-04-07T01:40:22;11.90;;;5.80;;
56005;SDS011;41888;44.696;10.522;2023-04-07T01:42:49;12.40;;;6.07;;
56005;SDS011;41888;44.696;10.522;2023-04-07T01:45:16;13.48;;;6.63;;
56005;SDS011;41888;44.696;10.522;2023-04-07T01:47:44;11.43;;;5.82;;
56005;SDS011;41888;44.696;10.522;2023-04-07T01:50:11;16.35;;;7.22;;
56005;SDS011;41888;44.696;10.522;2023-04-07T01:52:38;14.13;;;6.72;;
56005;SDS011;41888;44.696;10.522;2023-04-07T01:55:05;10.02;;;5.90;;
56005;SDS011;41888;44.696;10.522;2023-04-07T01:57:33;11.55;;;6.13;;
56005;SDS011;41888;44.696;10.522;2023-04-07T02:00:00;9.07;;;5.75;;
56005;SDS011;41888;44.696;10.522;2023-04-07T02:02:27;11.52;;;6.32;;
56005;SDS011;41888;44.696;10.522;2023-04-07T02:04:55;15.90;;;6.40;;
56005;SDS011;41888;44.696;10.522;2023-04-07T02:09:57;14.50;;;5.40;;
56005;SDS011;41888;44.696;10.522;2023-04-07T02:12:27;14.60;;;6.47;;
56005;SDS011;41888;44.696;10.522;2023-04-07T02:14:55;16.13;;;5.63;;
56005;SDS011;41888;44.696;10.522;2023-04-07T02:17:23;10.57;;;5.88;;
56005;SDS011;41888;44.696;10.522;2023-04-07T02:19:51;14.05;;;6.60;;
56005;SDS011;41888;44.696;10.522;2023-04-07T02:22:19;17.00;;;6.80;;
56005;SDS011;41888;44.696;10.522;2023-04-07T02:24:46;12.25;;;6.32;;
56005;SDS011;41888;44.696;10.522;2023-04-07T02:27:12;10.82;;;6.07;;
56005;SDS011;41888;44.696;10.522;2023-04-07T02:29:38;10.52;;;5.78;;
56005;SDS011;41888;44.696;10.522;2023-04-07T02:32:05;11.15;;;5.22;;
56005;SDS011;41888;44.696;10.522;2023-04-07T02:34:31;11.95;;;5.95;;
56005;SDS011;41888;44.696;10.522;2023-04-07T02:36:57;12.32;;;6.53;;
56005;SDS011;41888;44.696;10.522;2023-04-07T02:39:23;11.93;;;5.97;;
56005;SDS011;41888;44.696;10.522;2023-04-07T02:41:49;11.27;;;5.60;;
56005;SDS011;41888;44.696;10.522;2023-04-07T02:44:16;13.18;;;6.55;;
56005;SDS011;41888;44.696;10.522;2023-04-07T02:46:42;12.55;;;6.63;;
56005;SDS011;41888;44.696;10.522;2023-04-07T02:49:08;9.90;;;5.05;;
56005;SDS011;41888;44.696;10.522;2023-04-07T02:51:34;10.43;;;5.30;;
56005;SDS011;41888;44.696;10.522;2023-04-07T02:54:00;10.20;;;5.68;;
56005;SDS011;41888;44.696;10.522;2023-04-07T02:56:26;12.15;;;5.70;;
56005;SDS011;41888;44.696;10.522;2023-04-07T02:58:53;13.20;;;6.00;;
56005;SDS011;41888;44.696;10.522;2023-04-07T03:01:19;12.70;;;6.10;;
56005;SDS011;41888;44.696;10.522;2023-04-07T03:03:45;9.50;;;5.68;;
56005;SDS011;41888;44.696;10.522;2023-04-07T03:06:12;13.32;;;5.82;;
56005;SDS011;41888;44.696;10.522;2023-04-07T03:08:38;9.30;;;4.72;;
56005;SDS011;41888;44.696;10.522;2023-04-07T03:11:04;10.07;;;4.88;;
56005;SDS011;41888;44.696;10.522;2023-04-07T03:13:30;9.98;;;5.03;;
56005;SDS011;41888;44.696;10.522;2023-04-07T03:15:57;10.20;;;5.07;;
56005;SDS011;41888;44.696;10.522;2023-04-07T03:18:23;10.70;;;5.68;;
56005;SDS011;41888;44.696;10.522;2023-04-07T03:20:49;12.60;;;5.72;;
56005;SDS011;41888;44.696;10.522;2023-04-07T03:23:17;10.90;;;6.57;;
56005;SDS011;41888;44.696;10.522;2023-04-07T03:25:43;17.23;;;6.47;;
56005;SDS011;41888;44.696;10.522;2023-04-07T03:28:09;10.43;;;5.20;;
56005;SDS011;41888;44.696;10.522;2023-04-07T03:30:35;10.60;;;5.82;;
56005;SDS011;41888;44.696;10.522;2023-04-07T03:33:02;10.52;;;5.50;;
56005;SDS011;41888;44.696;10.522;2023-04-07T03:35:28;11.10;;;5.28;;
56005;SDS011;41888;44.696;10.522;2023-04-07T03:37:54;11.30;;;5.68;;
56005;SDS011;41888;44.696;10.522;2023-04-07T03:40:20;12.80;;;5.30;;
56005;SDS011;41888;44.696;10.522;2023-04-07T03:42:46;11.38;;;7.00;;
56005;SDS011;41888;44.696;10.522;2023-04-07T03:45:13;10.45;;;5.18;;
56005;SDS011;41888;44.696;10.522;2023-04-07T03:47:40;10.88;;;5.93;;
56005;SDS011;41888;44.696;10.522;2023-04-07T03:50:06;12.90;;;6.47;;
56005;SDS011;41888;44.696;10.522;2023-04-07T03:52:33;13.40;;;6.47;;
56005;SDS011;41888;44.696;10.522;2023-04-07T03:54:59;11.98;;;5.97;;
56005;SDS011;41888;44.696;10.522;2023-04-07T03:57:25;11.35;;;5.57;;
56005;SDS011;41888;44.696;10.522;2023-04-07T03:59:51;11.02;;;5.68;;
56005;SDS011;41888;44.696;10.522;2023-04-07T04:02:19;10.60;;;5.60;;
56005;SDS011;41888;44.696;10.522;2023-04-07T04:04:45;12.45;;;5.60;;
56005;SDS011;41888;44.696;10.522;2023-04-07T04:07:11;10.65;;;5.47;;
56005;SDS011;41888;44.696;10.522;2023-04-07T04:09:37;12.70;;;6.25;;
56005;SDS011;41888;44.696;10.522;2023-04-07T04:12:04;13.48;;;5.80;;
56005;SDS011;41888;44.696;10.522;2023-04-07T04:14:30;13.40;;;5.72;;
56005;SDS011;41888;44.696;10.522;2023-04-07T04:16:56;18.40;;;6.30;;
56005;SDS011;41888;44.696;10.522;2023-04-07T04:19:22;11.15;;;5.60;;
56005;SDS011;41888;44.696;10.522;2023-04-07T04:21:48;12.38;;;6.10;;
56005;SDS011;41888;44.696;10.522;2023-04-07T04:24:15;14.13;;;5.68;;
56005;SDS011;41888;44.696;10.522;2023-04-07T04:26:41;11.07;;;4.40;;
56005;SDS011;41888;44.696;10.522;2023-04-07T04:29:07;10.73;;;4.95;;
56005;SDS011;41888;44.696;10.522;2023-04-07T04:31:33;8.20;;;5.20;;
56005;SDS011;41888;44.696;10.522;2023-04-07T04:34:00;10.35;;;5.43;;
56005;SDS011;41888;44.696;10.522;2023-04-07T04:36:26;8.38;;;5.07;;
56005;SDS011;41888;44.696;10.522;2023-04-07T04:38:52;9.60;;;5.07;;
56005;SDS011;41888;44.696;10.522;2023-04-07T04:41:18;10.43;;;4.68;;
56005;SDS011;41888;44.696;10.522;2023-04-07T04:43:44;8.68;;;4.28;;
56005;SDS011;41888;44.696;10.522;2023-04-07T04:46:11;9.30;;;4.75;;
56005;SDS011;41888;44.696;10.522;2023-04-07T04:48:37;9.18;;;4.57;;
56005;SDS011;41888;44.696;10.522;2023-04-07T04:51:03;11.27;;;4.93;;
56005;SDS011;41888;44.696;10.522;2023-04-07T04:53:29;11.88;;;5.18;;
56005;SDS011;41888;44.696;10.522;2023-04-07T04:55:56;10.48;;;4.82;;
56005;SDS011;41888;44.696;10.522;2023-04-07T04:58:22;6.82;;;3.92;;
56005;SDS011;41888;44.696;10.522;2023-04-07T05:00:48;9.65;;;5.13;;
56005;SDS011;41888;44.696;10.522;2023-04-07T05:03:21;8.20;;;4.05;;
56005;SDS011;41888;44.696;10.522;2023-04-07T05:05:49;8.90;;;4.85;;
56005;SDS011;41888;44.696;10.522;2023-04-07T05:08:15;8.75;;;4.32;;
56005;SDS011;41888;44.696;10.522;2023-04-07T05:10:41;7.90;;;4.22;;
56005;SDS011;41888;44.696;10.522;2023-04-07T05:13:07;7.70;;;3.88;;
56005;SDS011;41888;44.696;10.522;2023-04-07T05:15:34;11.82;;;5.35;;
56005;SDS011;41888;44.696;10.522;2023-04-07T05:18:00;8.45;;;4.00;;
56005;SDS011;41888;44.696;10.522;2023-04-07T05:20:26;7.25;;;4.13;;
56005;SDS011;41888;44.696;10.522;2023-04-07T05:22:52;9.27;;;4.18;;
56005;SDS011;41888;44.696;10.522;2023-04-07T05:25:19;8.15;;;4.45;;
56005;SDS011;41888;44.696;10.522;2023-04-07T05:27:45;10.27;;;4.40;;
56005;SDS011;41888;44.696;10.522;2023-04-07T05:30:11;9.13;;;3.72;;
56005;SDS011;41888;44.696;10.522;2023-04-07T05:32:38;10.23;;;4.32;;
56005;SDS011;41888;44.696;10.522;2023-04-07T05:35:04;7.07;;;4.13;;
56005;SDS011;41888;44.696;10.522;2023-04-07T05:37:31;7.57;;;3.92;;
56005;SDS011;41888;44.696;10.522;2023-04-07T05:39:57;6.72;;;4.47;;
56005;SDS011;41888;44.696;10.522;2023-04-07T05:42:23;9.13;;;4.47;;
56005;SDS011;41888;44.696;10.522;2023-04-07T05:44:49;7.28;;;3.92;;
56005;SDS011;41888;44.696;10.522;2023-04-07T05:47:15;10.20;;;4.15;;
56005;SDS011;41888;44.696;10.522;2023-04-07T05:49:41;8.85;;;3.75;;
56005;SDS011;41888;44.696;10.522;2023-04-07T05:52:11;12.60;;;4.80;;
56005;SDS011;41888;44.696;10.522;2023-04-07T05:54:38;8.27;;;3.80;;
56005;SDS011;41888;44.696;10.522;2023-04-07T05:57:05;9.05;;;4.38;;
56005;SDS011;41888;44.696;10.522;2023-04-07T05:59:32;8.10;;;4.47;;
56005;SDS011;41888;44.696;10.522;2023-04-07T06:01:59;7.15;;;4.50;;
56005;SDS011;41888;44.696;10.522;2023-04-07T06:04:25;7.95;;;3.90;;
56005;SDS011;41888;44.696;10.522;2023-04-07T06:06:51;7.60;;;3.72;;
56005;SDS011;41888;44.696;10.522;2023-04-07T06:09:19;6.45;;;4.00;;
56005;SDS011;41888;44.696;10.522;2023-04-07T06:11:46;8.02;;;4.38;;
56005;SDS011;41888;44.696;10.522;2023-04-07T06:14:12;10.45;;;5.55;;
56005;SDS011;41888;44.696;10.522;2023-04-07T06:16:38;10.18;;;4.63;;
56005;SDS011;41888;44.696;10.522;2023-04-07T06:19:05;9.15;;;5.50;;
56005;SDS011;41888;44.696;10.522;2023-04-07T06:21:32;7.75;;;4.38;;
56005;SDS011;41888;44.696;10.522;2023-04-07T06:23:58;8.30;;;4.40;;
56005;SDS011;41888;44.696;10.522;2023-04-07T06:26:24;9.23;;;5.20;;
56005;SDS011;41888;44.696;10.522;2023-04-07T06:28:51;7.20;;;4.68;;
56005;SDS011;41888;44.696;10.522;2023-04-07T06:31:17;8.52;;;4.30;;
56005;SDS011;41888;44.696;10.522;2023-04-07T06:33:44;9.25;;;5.18;;
56005;SDS011;41888;44.696;10.522;2023-04-07T06:36:11;13.10;;;5.03;;
56005;SDS011;41888;44.696;10.522;2023-04-07T06:38:37;7.53;;;4.88;;
56005;SDS011;41888;44.696;10.522;2023-04-07T06:41:03;13.93;;;6.30;;
56005;SDS011;41888;44.696;10.522;2023-04-07T06:43:30;8.38;;;5.55;;
56005;SDS011;41888;44.696;10.522;2023-04-07T06:45:56;9.07;;;5.43;;
56005;SDS011;41888;44.696;10.522;2023-04-07T06:48:22;9.20;;;5.10;;
56005;SDS011;41888;44.696;10.522;2023-04-07T06:50:48;8.43;;;5.43;;
56005;SDS011;41888;44.696;10.522;2023-04-07T06:53:15;7.82;;;4.20;;
56005;SDS011;41888;44.696;10.522;2023-04-07T06:55:42;9.57;;;5.65;;
56005;SDS011;41888;44.696;10.522;2023-04-07T06:58:08;11.70;;;5.50;;
56005;SDS011;41888;44.696;10.522;2023-04-07T07:00:35;7.45;;;4.88;;
56005;SDS011;41888;44.696;10.522;2023-04-07T07:03:01;10.05;;;5.47;;
56005;SDS011;41888;44.696;10.522;2023-04-07T07:05:28;9.95;;;6.00;;
56005;SDS011;41888;44.696;10.522;2023-04-07T07:07:54;8.13;;;5.72;;
56005;SDS011;41888;44.696;10.522;2023-04-07T07:10:20;13.10;;;5.20;;
56005;SDS011;41888;44.696;10.522;2023-04-07T07:12:50;9.65;;;5.63;;
56005;SDS011;41888;44.696;10.522;2023-04-07T07:15:16;12.77;;;5.20;;
56005;SDS011;41888;44.696;10.522;2023-04-07T07:17:43;10.98;;;6.38;;
56005;SDS011;41888;44.696;10.522;2023-04-07T07:20:09;14.43;;;5.70;;
56005;SDS011;41888;44.696;10.522;2023-04-07T07:22:35;14.93;;;7.82;;
56005;SDS011;41888;44.696;10.522;2023-04-07T07:25:02;11.70;;;6.47;;
56005;SDS011;41888;44.696;10.522;2023-04-07T07:27:28;12.57;;;5.43;;
56005;SDS011;41888;44.696;10.522;2023-04-07T07:29:54;9.38;;;5.55;;
56005;SDS011;41888;44.696;10.522;2023-04-07T07:32:21;10.90;;;6.30;;
56005;SDS011;41888;44.696;10.522;2023-04-07T07:34:47;11.30;;;6.22;;
56005;SDS011;41888;44.696;10.522;2023-04-07T07:37:13;9.73;;;5.28;;
56005;SDS011;41888;44.696;10.522;2023-04-07T07:39:39;8.77;;;5.40;;
56005;SDS011;41888;44.696;10.522;2023-04-07T07:42:06;12.38;;;5.95;;
56005;SDS011;41888;44.696;10.522;2023-04-07T07:44:32;12.02;;;7.18;;
56005;SDS011;41888;44.696;10.522;2023-04-07T07:46:58;11.70;;;6.57;;
56005;SDS011;41888;44.696;10.522;2023-04-07T07:49:24;11.85;;;6.45;;
56005;SDS011;41888;44.696;10.522;2023-04-07T07:51:51;16.90;;;7.07;;
56005;SDS011;41888;44.696;10.522;2023-04-07T07:54:17;13.57;;;7.75;;
56005;SDS011;41888;44.696;10.522;2023-04-07T07:56:43;12.68;;;6.55;;
56005;SDS011;41888;44.696;10.522;2023-04-07T07:59:09;11.20;;;6.35;;
56005;SDS011;41888;44.696;10.522;2023-04-07T08:01:35;11.13;;;6.35;;
56005;SDS011;41888;44.696;10.522;2023-04-07T08:04:01;12.82;;;6.88;;
56005;SDS011;41888;44.696;10.522;2023-04-07T08:06:28;13.30;;;7.00;;
56005;SDS011;41888;44.696;10.522;2023-04-07T08:08:55;11.65;;;7.22;;
56005;SDS011;41888;44.696;10.522;2023-04-07T08:11:22;14.70;;;6.90;;
56005;SDS011;41888;44.696;10.522;2023-04-07T08:13:48;13.50;;;7.68;;
56005;SDS011;41888;44.696;10.522;2023-04-07T08:16:14;11.68;;;7.03;;
56005;SDS011;41888;44.696;10.522;2023-04-07T08:18:40;14.88;;;7.57;;
56005;SDS011;41888;44.696;10.522;2023-04-07T08:21:07;14.77;;;6.85;;
56005;SDS011;41888;44.696;10.522;2023-04-07T08:23:33;16.65;;;8.13;;
56005;SDS011;41888;44.696;10.522;2023-04-07T08:25:59;13.90;;;7.53;;
56005;SDS011;41888;44.696;10.522;2023-04-07T08:28:26;15.10;;;7.85;;
56005;SDS011;41888;44.696;10.522;2023-04-07T08:30:52;13.50;;;8.13;;
56005;SDS011;41888;44.696;10.522;2023-04-07T08:33:18;12.80;;;7.07;;
56005;SDS011;41888;44.696;10.522;2023-04-07T08:35:44;12.43;;;7.18;;
56005;SDS011;41888;44.696;10.522;2023-04-07T08:38:11;15.07;;;8.07;;
56005;SDS011;41888;44.696;10.522;2023-04-07T08:40:38;16.92;;;8.30;;
56005;SDS011;41888;44.696;10.522;2023-04-07T08:43:05;17.95;;;8.43;;
56005;SDS011;41888;44.696;10.522;2023-04-07T08:45:38;13.00;;;8.02;;
56005;SDS011;41888;44.696;10.522;2023-04-07T08:48:16;18.30;;;8.45;;
56005;SDS011;41888;44.696;10.522;2023-04-07T08:50:45;14.18;;;7.47;;
56005;SDS011;41888;44.696;10.522;2023-04-07T08:53:17;15.75;;;8.65;;
56005;SDS011;41888;44.696;10.522;2023-04-07T08:55:48;12.93;;;6.57;;
56005;SDS011;41888;44.696;10.522;2023-04-07T08:58:14;17.00;;;7.40;;
56005;SDS011;41888;44.696;10.522;2023-04-07T09:00:44;14.32;;;8.60;;
56005;SDS011;41888;44.696;10.522;2023-04-07T09:03:13;15.27;;;6.78;;
56005;SDS011;41888;44.696;10.522;2023-04-07T09:05:42;14.57;;;9.07;;
56005;SDS011;41888;44.696;10.522;2023-04-07T09:08:10;25.02;;;8.13;;
56005;SDS011;41888;44.696;10.522;2023-04-07T09:10:36;12.07;;;7.10;;
56005;SDS011;41888;44.696;10.522;2023-04-07T09:13:02;16.48;;;8.43;;
56005;SDS011;41888;44.696;10.522;2023-04-07T09:15:29;13.02;;;7.00;;
56005;SDS011;41888;44.696;10.522;2023-04-07T09:17:56;21.20;;;7.40;;
56005;SDS011;41888;44.696;10.522;2023-04-07T09:20:23;13.57;;;7.05;;
56005;SDS011;41888;44.696;10.522;2023-04-07T09:22:49;13.48;;;7.03;;
56005;SDS011;41888;44.696;10.522;2023-04-07T09:25:17;13.40;;;7.50;;
56005;SDS011;41888;44.696;10.522;2023-04-07T09:27:56;14.48;;;7.55;;
56005;SDS011;41888;44.696;10.522;2023-04-07T09:30:24;15.05;;;7.80;;
56005;SDS011;41888;44.696;10.522;2023-04-07T09:32:51;15.23;;;8.18;;
56005;SDS011;41888;44.696;10.522;2023-04-07T09:35:17;14.02;;;7.40;;
56005;SDS011;41888;44.696;10.522;2023-04-07T09:37:44;12.85;;;7.85;;
56005;SDS011;41888;44.696;10.522;2023-04-07T09:40:27;18.08;;;8.38;;
56005;SDS011;41888;44.696;10.522;2023-04-07T09:42:53;14.20;;;7.93;;
56005;SDS011;41888;44.696;10.522;2023-04-07T09:45:22;17.33;;;8.23;;
56005;SDS011;41888;44.696;10.522;2023-04-07T09:47:53;13.48;;;7.55;;
56005;SDS011;41888;44.696;10.522;2023-04-07T09:50:32;14.23;;;8.15;;
56005;SDS011;41888;44.696;10.522;2023-04-07T09:53:00;14.50;;;7.97;;
56005;SDS011;41888;44.696;10.522;2023-04-07T09:55:28;17.67;;;7.95;;
56005;SDS011;41888;44.696;10.522;2023-04-07T09:57:55;25.90;;;9.85;;
56005;SDS011;41888;44.696;10.522;2023-04-07T10:00:22;15.05;;;9.95;;
56005;SDS011;41888;44.696;10.522;2023-04-07T10:02:49;14.82;;;8.98;;
56005;SDS011;41888;44.696;10.522;2023-04-07T10:05:17;12.63;;;8.15;;
56005;SDS011;41888;44.696;10.522;2023-04-07T10:07:45;14.95;;;8.40;;
56005;SDS011;41888;44.696;10.522;2023-04-07T10:10:12;15.95;;;8.70;;
56005;SDS011;41888;44.696;10.522;2023-04-07T10:12:38;14.43;;;8.57;;
56005;SDS011;41888;44.696;10.522;2023-04-07T10:15:05;13.95;;;7.85;;
56005;SDS011;41888;44.696;10.522;2023-04-07T10:17:32;16.08;;;8.57;;
56005;SDS011;41888;44.696;10.522;2023-04-07T10:20:01;13.02;;;8.60;;
56005;SDS011;41888;44.696;10.522;2023-04-07T10:22:31;16.55;;;8.82;;
56005;SDS011;41888;44.696;10.522;2023-04-07T10:24:59;17.70;;;9.15;;
56005;SDS011;41888;44.696;10.522;2023-04-07T10:27:38;14.13;;;8.10;;
56005;SDS011;41888;44.696;10.522;2023-04-07T10:30:16;17.23;;;9.90;;
56005;SDS011;41888;44.696;10.522;2023-04-07T10:32:49;15.75;;;9.77;;
56005;SDS011;41888;44.696;10.522;2023-04-07T10:35:17;17.42;;;8.80;;
56005;SDS011;41888;44.696;10.522;2023-04-07T10:40:38;14.52;;;9.02;;
56005;SDS011;41888;44.696;10.522;2023-04-07T10:43:05;19.83;;;10.27;;
56005;SDS011;41888;44.696;10.522;2023-04-07T10:48:18;21.80;;;11.00;;
56005;SDS011;41888;44.696;10.522;2023-04-07T10:50:46;17.15;;;9.77;;
56005;SDS011;41888;44.696;10.522;2023-04-07T10:53:34;18.90;;;9.75;;
56005;SDS011;41888;44.696;10.522;2023-04-07T10:56:02;17.73;;;9.63;;
56005;SDS011;41888;44.696;10.522;2023-04-07T10:58:32;16.10;;;9.85;;
56005;SDS011;41888;44.696;10.522;2023-04-07T11:03:28;20.13;;;11.18;;
56005;SDS011;41888;44.696;10.522;2023-04-07T11:08:37;19.10;;;11.00;;
56005;SDS011;41888;44.696;10.522;2023-04-07T11:11:15;20.48;;;11.13;;
56005;SDS011;41888;44.696;10.522;2023-04-07T11:13:45;15.52;;;9.88;;
56005;SDS011;41888;44.696;10.522;2023-04-07T11:16:13;20.92;;;10.07;;
56005;SDS011;41888;44.696;10.522;2023-04-07T11:18:42;14.95;;;9.48;;
56005;SDS011;41888;44.696;10.522;2023-04-07T11:21:09;17.35;;;10.10;;
56005;SDS011;41888;44.696;10.522;2023-04-07T11:23:39;17.27;;;10.00;;
56005;SDS011;41888;44.696;10.522;2023-04-07T11:26:07;17.80;;;10.40;;
56005;SDS011;41888;44.696;10.522;2023-04-07T11:28:35;17.65;;;10.77;;
56005;SDS011;41888;44.696;10.522;2023-04-07T11:31:10;18.90;;;10.70;;
56005;SDS011;41888;44.696;10.522;2023-04-07T11:33:37;15.27;;;9.77;;
56005;SDS011;41888;44.696;10.522;2023-04-07T11:36:05;19.20;;;11.10;;
56005;SDS011;41888;44.696;10.522;2023-04-07T11:38:35;27.00;;;11.35;;
56005;SDS011;41888;44.696;10.522;2023-04-07T11:41:09;17.05;;;10.02;;
56005;SDS011;41888;44.696;10.522;2023-04-07T11:43:36;16.35;;;9.85;;
56005;SDS011;41888;44.696;10.522;2023-04-07T11:46:15;17.48;;;11.10;;
56005;SDS011;41888;44.696;10.522;2023-04-07T11:48:43;23.40;;;12.05;;
56005;SDS011;41888;44.696;10.522;2023-04-07T11:51:18;22.08;;;11.77;;
56005;SDS011;41888;44.696;10.522;2023-04-07T11:53:53;31.77;;;15.88;;
56005;SDS011;41888;44.696;10.522;2023-04-07T11:56:20;23.60;;;12.15;;
56005;SDS011;41888;44.696;10.522;2023-04-07T12:01:17;18.48;;;10.80;;
56005;SDS011;41888;44.696;10.522;2023-04-07T12:03:57;19.45;;;10.65;;
56005;SDS011;41888;44.696;10.522;2023-04-07T12:06:33;19.85;;;10.93;;
56005;SDS011;41888;44.696;10.522;2023-04-07T12:09:05;19.55;;;10.52;;
56005;SDS011;41888;44.696;10.522;2023-04-07T12:11:33;17.27;;;10.52;;
56005;SDS011;41888;44.696;10.522;2023-04-07T12:14:00;19.23;;;11.52;;
56005;SDS011;41888;44.696;10.522;2023-04-07T12:16:29;18.45;;;10.18;;
56005;SDS011;41888;44.696;10.522;2023-04-07T12:18:56;17.75;;;10.40;;
56005;SDS011;41888;44.696;10.522;2023-04-07T12:21:22;20.75;;;10.32;;
56005;SDS011;41888;44.696;10.522;2023-04-07T12:23:50;21.15;;;11.40;;
56005;SDS011;41888;44.696;10.522;2023-04-07T12:26:16;21.30;;;11.70;;
56005;SDS011;41888;44.696;10.522;2023-04-07T12:28:43;21.33;;;11.88;;
56005;SDS011;41888;44.696;10.522;2023-04-07T12:31:09;25.02;;;11.20;;
56005;SDS011;41888;44.696;10.522;2023-04-07T12:33:35;19.02;;;11.27;;
56005;SDS011;41888;44.696;10.522;2023-04-07T12:36:01;19.42;;;10.02;;
56005;SDS011;41888;44.696;10.522;2023-04-07T12:38:28;19.85;;;10.40;;
56005;SDS011;41888;44.696;10.522;2023-04-07T12:40:54;19.05;;;9.82;;
56005;SDS011;41888;44.696;10.522;2023-04-07T12:43:27;25.42;;;10.48;;
56005;SDS011;41888;44.696;10.522;2023-04-07T12:45:53;21.40;;;11.48;;
56005;SDS011;41888;44.696;10.522;2023-04-07T12:48:20;17.75;;;10.40;;
56005;SDS011;41888;44.696;10.522;2023-04-07T12:50:46;19.00;;;10.40;;
56005;SDS011;41888;44.696;10.522;2023-04-07T12:53:12;22.17;;;11.32;;
56005;SDS011;41888;44.696;10.522;2023-04-07T12:55:38;23.30;;;10.73;;
56005;SDS011;41888;44.696;10.522;2023-04-07T12:58:05;21.95;;;10.38;;
56005;SDS011;41888;44.696;10.522;2023-04-07T13:00:33;18.85;;;10.68;;
56005;SDS011;41888;44.696;10.522;2023-04-07T13:02:59;18.80;;;10.40;;
56005;SDS011;41888;44.696;10.522;2023-04-07T13:05:27;24.17;;;11.48;;
56005;SDS011;41888;44.696;10.522;2023-04-07T13:07:53;22.40;;;10.45;;
56005;SDS011;41888;44.696;10.522;2023-04-07T13:10:19;23.02;;;11.00;;
56005;SDS011;41888;44.696;10.522;2023-04-07T13:12:47;24.23;;;11.30;;
56005;SDS011;41888;44.696;10.522;2023-04-07T13:15:13;21.33;;;10.40;;
56005;SDS011;41888;44.696;10.522;2023-04-07T13:17:39;18.33;;;10.10;;
56005;SDS011;41888;44.696;10.522;2023-04-07T13:20:06;17.90;;;11.38;;
56005;SDS011;41888;44.696;10.522;2023-04-07T13:22:32;20.70;;;10.75;;
56005;SDS011;41888;44.696;10.522;2023-04-07T13:24:59;23.88;;;11.02;;
56005;SDS011;41888;44.696;10.522;2023-04-07T13:27:25;17.02;;;9.40;;
56005;SDS011;41888;44.696;10.522;2023-04-07T13:29:51;21.35;;;11.45;;
56005;SDS011;41888;44.696;10.522;2023-04-07T13:32:17;18.45;;;9.02;;
56005;SDS011;41888;44.696;10.522;2023-04-07T13:34:43;16.25;;;6.88;;
56005;SDS011;41888;44.696;10.522;2023-04-07T13:37:10;9.43;;;5.43;;
56005;SDS011;41888;44.696;10.522;2023-04-07T13:39:36;12.10;;;6.72;;
56005;SDS011;41888;44.696;10.522;2023-04-07T13:42:03;13.75;;;7.80;;
56005;SDS011;41888;44.696;10.522;2023-04-07T13:44:29;19.52;;;9.10;;
56005;SDS011;41888;44.696;10.522;2023-04-07T13:46:58;17.02;;;7.57;;
56005;SDS011;41888;44.696;10.522;2023-04-07T13:49:24;11.32;;;5.60;;
56005;SDS011;41888;44.696;10.522;2023-04-07T13:51:50;11.30;;;5.97;;
56005;SDS011;41888;44.696;10.522;2023-04-07T13:54:16;9.38;;;5.30;;
56005;SDS011;41888;44.696;10.522;2023-04-07T13:56:43;12.13;;;7.03;;
56005;SDS011;41888;44.696;10.522;2023-04-07T13:59:09;16.17;;;6.20;;
56005;SDS011;41888;44.696;10.522;2023-04-07T14:01:35;12.00;;;6.30;;
56005;SDS011;41888;44.696;10.522;2023-04-07T14:04:03;10.43;;;6.28;;
56005;SDS011;41888;44.696;10.522;2023-04-07T14:06:30;10.80;;;6.90;;
56005;SDS011;41888;44.696;10.522;2023-04-07T14:08:57;11.68;;;6.28;;
56005;SDS011;41888;44.696;10.522;2023-04-07T14:11:23;12.25;;;6.85;;
56005;SDS011;41888;44.696;10.522;2023-04-07T14:13:51;13.20;;;7.63;;
56005;SDS011;41888;44.696;10.522;2023-04-07T14:16:17;12.38;;;8.13;;
56005;SDS011;41888;44.696;10.522;2023-04-07T14:18:43;13.70;;;7.07;;
56005;SDS011;41888;44.696;10.522;2023-04-07T14:21:11;14.30;;;7.78;;
56005;SDS011;41888;44.696;10.522;2023-04-07T14:23:37;13.25;;;7.65;;
56005;SDS011;41888;44.696;10.522;2023-04-07T14:26:03;13.10;;;7.63;;
56005;SDS011;41888;44.696;10.522;2023-04-07T14:28:29;13.70;;;7.20;;
56005;SDS011;41888;44.696;10.522;2023-04-07T14:30:55;14.95;;;7.38;;
56005;SDS011;41888;44.696;10.522;2023-04-07T14:33:21;10.57;;;6.88;;
56005;SDS011;41888;44.696;10.522;2023-04-07T14:35:48;12.88;;;7.03;;
56005;SDS011;41888;44.696;10.522;2023-04-07T14:38:15;14.98;;;7.85;;
56005;SDS011;41888;44.696;10.522;2023-04-07T14:40:41;13.63;;;7.60;;
56005;SDS011;41888;44.696;10.522;2023-04-07T14:43:09;13.95;;;7.80;;
56005;SDS011;41888;44.696;10.522;2023-04-07T14:45:36;14.57;;;8.02;;
56005;SDS011;41888;44.696;10.522;2023-04-07T14:48:02;16.55;;;8.45;;